1G5 weather

Medina Municipal Airport
Medina, Ohio, United States

Public forecast

Using degrees Fahrenheit for public forecast. Weather courtesy of forecast.io.

Closest aviation weather report (METAR) to Medina Municipal Airport

Closest report is Akron Fulton International Airport, 14.6 nm (27.1 km) ESE. Retrieved 2020/07/10 11:54 UTC (50 minutes ago):

KAKR 101154Z AUTO 00000KT 10SM CLR 26/20 A2988 RMK AO2 SLP107 T02610200 10261 20228 58001

Closest aviation forecast (TAF) to Medina Municipal Airport

Closest forecast is Cleveland Hopkins International Airport, 17.3 nm (32.0 km) NNW. Retrieved 2020/07/10 12:22 UTC (22 minutes ago):

TAF KCLE 101120Z 1012/1118 VRB03KT P6SM SCT250 FM101800 22006KT P6SM VCTS SCT050CB TEMPO 1020/1024 1SM -TSRA BKN025CB FM110000 27008KT P6SM VCSH BKN035 FM110600 28008KT P6SM VCSH BKN025